sensor_id;sensor_type;location;lat;lon;timestamp;P1;durP1;ratioP1;P2;durP2;ratioP2
47483;SDS011;54076;50.322;18.650;2023-05-10T00:04:11;10.40;;;4.50;;
47483;SDS011;54076;50.322;18.650;2023-05-10T00:09:12;11.20;;;4.60;;
47483;SDS011;54076;50.322;18.650;2023-05-10T00:14:13;9.90;;;4.70;;
47483;SDS011;54076;50.322;18.650;2023-05-10T00:19:14;10.90;;;5.20;;
47483;SDS011;54076;50.322;18.650;2023-05-10T00:24:15;10.10;;;4.40;;
47483;SDS011;54076;50.322;18.650;2023-05-10T00:29:16;9.90;;;4.90;;
47483;SDS011;54076;50.322;18.650;2023-05-10T00:34:17;10.10;;;4.70;;
47483;SDS011;54076;50.322;18.650;2023-05-10T00:39:18;11.50;;;5.10;;
47483;SDS011;54076;50.322;18.650;2023-05-10T00:44:19;9.70;;;4.80;;
47483;SDS011;54076;50.322;18.650;2023-05-10T00:49:20;9.60;;;4.80;;
47483;SDS011;54076;50.322;18.650;2023-05-10T00:54:21;9.20;;;4.50;;
47483;SDS011;54076;50.322;18.650;2023-05-10T00:59:22;11.30;;;4.70;;
47483;SDS011;54076;50.322;18.650;2023-05-10T01:04:24;10.70;;;4.60;;
47483;SDS011;54076;50.322;18.650;2023-05-10T01:09:28;12.90;;;4.50;;
47483;SDS011;54076;50.322;18.650;2023-05-10T01:14:30;12.80;;;4.90;;
47483;SDS011;54076;50.322;18.650;2023-05-10T01:19:31;8.90;;;4.30;;
47483;SDS011;54076;50.322;18.650;2023-05-10T01:36:26;10.90;;;5.30;;
47483;SDS011;54076;50.322;18.650;2023-05-10T01:47:08;11.40;;;4.50;;
47483;SDS011;54076;50.322;18.650;2023-05-10T01:52:12;8.60;;;4.60;;
47483;SDS011;54076;50.322;18.650;2023-05-10T01:57:16;11.90;;;5.10;;
47483;SDS011;54076;50.322;18.650;2023-05-10T02:02:20;9.80;;;4.70;;
47483;SDS011;54076;50.322;18.650;2023-05-10T02:07:22;9.10;;;4.50;;
47483;SDS011;54076;50.322;18.650;2023-05-10T02:12:24;11.50;;;4.90;;
47483;SDS011;54076;50.322;18.650;2023-05-10T02:17:26;9.10;;;5.00;;
47483;SDS011;54076;50.322;18.650;2023-05-10T02:22:29;10.70;;;5.50;;
47483;SDS011;54076;50.322;18.650;2023-05-10T02:27:30;10.20;;;5.10;;
47483;SDS011;54076;50.322;18.650;2023-05-10T02:32:32;10.60;;;5.30;;
47483;SDS011;54076;50.322;18.650;2023-05-10T02:37:36;11.20;;;5.20;;
47483;SDS011;54076;50.322;18.650;2023-05-10T02:42:39;12.20;;;5.50;;
47483;SDS011;54076;50.322;18.650;2023-05-10T02:47:42;11.40;;;5.70;;
47483;SDS011;54076;50.322;18.650;2023-05-10T02:52:46;12.90;;;5.70;;
47483;SDS011;54076;50.322;18.650;2023-05-10T02:57:56;11.40;;;5.80;;
47483;SDS011;54076;50.322;18.650;2023-05-10T03:02:59;10.80;;;5.40;;
47483;SDS011;54076;50.322;18.650;2023-05-10T03:08:00;14.20;;;5.90;;
47483;SDS011;54076;50.322;18.650;2023-05-10T03:19:11;16.20;;;5.80;;
47483;SDS011;54076;50.322;18.650;2023-05-10T03:24:16;11.80;;;6.10;;
47483;SDS011;54076;50.322;18.650;2023-05-10T03:29:21;13.60;;;5.90;;
47483;SDS011;54076;50.322;18.650;2023-05-10T03:34:23;12.40;;;5.80;;
47483;SDS011;54076;50.322;18.650;2023-05-10T03:39:24;14.00;;;6.20;;
47483;SDS011;54076;50.322;18.650;2023-05-10T03:44:26;14.20;;;6.30;;
47483;SDS011;54076;50.322;18.650;2023-05-10T03:49:26;14.40;;;6.00;;
47483;SDS011;54076;50.322;18.650;2023-05-10T03:54:27;12.50;;;6.40;;
47483;SDS011;54076;50.322;18.650;2023-05-10T03:59:28;14.30;;;6.20;;
47483;SDS011;54076;50.322;18.650;2023-05-10T04:04:30;15.30;;;7.30;;
47483;SDS011;54076;50.322;18.650;2023-05-10T04:09:31;13.90;;;6.50;;
47483;SDS011;54076;50.322;18.650;2023-05-10T04:14:33;16.20;;;6.40;;
47483;SDS011;54076;50.322;18.650;2023-05-10T04:19:34;13.30;;;5.70;;
47483;SDS011;54076;50.322;18.650;2023-05-10T04:24:35;12.10;;;6.30;;
47483;SDS011;54076;50.322;18.650;2023-05-10T04:29:36;14.30;;;6.50;;
47483;SDS011;54076;50.322;18.650;2023-05-10T04:34:37;12.40;;;6.00;;
47483;SDS011;54076;50.322;18.650;2023-05-10T04:39:38;12.80;;;5.60;;
47483;SDS011;54076;50.322;18.650;2023-05-10T04:44:39;13.30;;;6.00;;
47483;SDS011;54076;50.322;18.650;2023-05-10T04:49:40;13.30;;;6.00;;
47483;SDS011;54076;50.322;18.650;2023-05-10T04:54:41;13.60;;;6.00;;
47483;SDS011;54076;50.322;18.650;2023-05-10T04:59:42;13.00;;;5.60;;
47483;SDS011;54076;50.322;18.650;2023-05-10T05:04:43;8.70;;;4.70;;
47483;SDS011;54076;50.322;18.650;2023-05-10T05:09:44;10.50;;;4.90;;
47483;SDS011;54076;50.322;18.650;2023-05-10T05:14:45;10.70;;;4.60;;
47483;SDS011;54076;50.322;18.650;2023-05-10T05:19:46;9.40;;;4.40;;
47483;SDS011;54076;50.322;18.650;2023-05-10T05:24:47;18.40;;;6.40;;
47483;SDS011;54076;50.322;18.650;2023-05-10T05:29:48;10.80;;;4.80;;
47483;SDS011;54076;50.322;18.650;2023-05-10T05:34:49;10.90;;;5.00;;
47483;SDS011;54076;50.322;18.650;2023-05-10T05:39:53;11.00;;;4.40;;
47483;SDS011;54076;50.322;18.650;2023-05-10T05:44:55;16.70;;;4.60;;
47483;SDS011;54076;50.322;18.650;2023-05-10T05:49:56;12.00;;;4.30;;
47483;SDS011;54076;50.322;18.650;2023-05-10T05:54:57;10.30;;;4.40;;
47483;SDS011;54076;50.322;18.650;2023-05-10T05:59:58;16.90;;;4.60;;
47483;SDS011;54076;50.322;18.650;2023-05-10T06:04:59;15.90;;;4.20;;
47483;SDS011;54076;50.322;18.650;2023-05-10T06:10:01;8.30;;;4.00;;
47483;SDS011;54076;50.322;18.650;2023-05-10T06:15:03;43.90;;;6.20;;
47483;SDS011;54076;50.322;18.650;2023-05-10T06:20:04;23.60;;;5.10;;
47483;SDS011;54076;50.322;18.650;2023-05-10T06:25:07;11.30;;;3.80;;
47483;SDS011;54076;50.322;18.650;2023-05-10T06:30:08;7.90;;;3.50;;
47483;SDS011;54076;50.322;18.650;2023-05-10T06:35:10;8.90;;;3.80;;
47483;SDS011;54076;50.322;18.650;2023-05-10T06:40:11;8.10;;;3.40;;
47483;SDS011;54076;50.322;18.650;2023-05-10T06:45:13;6.40;;;3.70;;
47483;SDS011;54076;50.322;18.650;2023-05-10T06:50:15;7.90;;;3.10;;
47483;SDS011;54076;50.322;18.650;2023-05-10T06:55:16;9.00;;;3.90;;
47483;SDS011;54076;50.322;18.650;2023-05-10T07:00:18;9.30;;;3.30;;
47483;SDS011;54076;50.322;18.650;2023-05-10T07:05:19;7.20;;;4.00;;
47483;SDS011;54076;50.322;18.650;2023-05-10T07:10:21;6.80;;;3.00;;
47483;SDS011;54076;50.322;18.650;2023-05-10T07:15:22;6.50;;;3.10;;
47483;SDS011;54076;50.322;18.650;2023-05-10T07:20:23;5.80;;;3.10;;
47483;SDS011;54076;50.322;18.650;2023-05-10T07:25:24;10.00;;;3.30;;
47483;SDS011;54076;50.322;18.650;2023-05-10T07:30:25;7.80;;;2.80;;
47483;SDS011;54076;50.322;18.650;2023-05-10T07:35:26;6.80;;;2.50;;
47483;SDS011;54076;50.322;18.650;2023-05-10T07:40:28;11.20;;;5.00;;
47483;SDS011;54076;50.322;18.650;2023-05-10T07:45:29;5.40;;;2.80;;
47483;SDS011;54076;50.322;18.650;2023-05-10T07:50:30;5.90;;;2.90;;
47483;SDS011;54076;50.322;18.650;2023-05-10T07:55:31;5.20;;;2.60;;
47483;SDS011;54076;50.322;18.650;2023-05-10T08:00:32;7.10;;;2.90;;
47483;SDS011;54076;50.322;18.650;2023-05-10T08:05:33;5.20;;;2.80;;
47483;SDS011;54076;50.322;18.650;2023-05-10T08:10:34;6.40;;;2.70;;
47483;SDS011;54076;50.322;18.650;2023-05-10T08:15:35;8.30;;;2.80;;
47483;SDS011;54076;50.322;18.650;2023-05-10T08:20:36;5.20;;;2.70;;
47483;SDS011;54076;50.322;18.650;2023-05-10T08:25:37;4.40;;;2.40;;
47483;SDS011;54076;50.322;18.650;2023-05-10T08:30:38;5.80;;;2.20;;
47483;SDS011;54076;50.322;18.650;2023-05-10T08:35:39;7.00;;;2.40;;
47483;SDS011;54076;50.322;18.650;2023-05-10T08:40:41;5.30;;;2.40;;
47483;SDS011;54076;50.322;18.650;2023-05-10T08:45:44;7.00;;;3.10;;
47483;SDS011;54076;50.322;18.650;2023-05-10T08:50:48;5.70;;;2.60;;
47483;SDS011;54076;50.322;18.650;2023-05-10T08:55:50;6.30;;;2.70;;
47483;SDS011;54076;50.322;18.650;2023-05-10T09:00:51;6.20;;;3.20;;
47483;SDS011;54076;50.322;18.650;2023-05-10T09:05:52;6.40;;;2.80;;
47483;SDS011;54076;50.322;18.650;2023-05-10T09:10:54;5.90;;;2.90;;
47483;SDS011;54076;50.322;18.650;2023-05-10T09:15:55;6.90;;;2.90;;
47483;SDS011;54076;50.322;18.650;2023-05-10T09:20:57;7.00;;;3.10;;
47483;SDS011;54076;50.322;18.650;2023-05-10T09:26:02;5.30;;;2.90;;
47483;SDS011;54076;50.322;18.650;2023-05-10T09:31:06;8.30;;;3.20;;
47483;SDS011;54076;50.322;18.650;2023-05-10T09:36:07;6.00;;;3.00;;
47483;SDS011;54076;50.322;18.650;2023-05-10T09:41:23;6.30;;;2.60;;
47483;SDS011;54076;50.322;18.650;2023-05-10T09:46:25;6.10;;;2.90;;
47483;SDS011;54076;50.322;18.650;2023-05-10T09:51:26;6.40;;;2.90;;
47483;SDS011;54076;50.322;18.650;2023-05-10T09:56:34;5.00;;;2.60;;
47483;SDS011;54076;50.322;18.650;2023-05-10T10:01:37;7.80;;;3.40;;
47483;SDS011;54076;50.322;18.650;2023-05-10T10:06:39;8.50;;;2.70;;
47483;SDS011;54076;50.322;18.650;2023-05-10T10:11:40;10.20;;;2.60;;
47483;SDS011;54076;50.322;18.650;2023-05-10T10:16:42;7.10;;;2.80;;
47483;SDS011;54076;50.322;18.650;2023-05-10T10:21:43;7.70;;;2.80;;
47483;SDS011;54076;50.322;18.650;2023-05-10T10:26:44;5.70;;;2.70;;
47483;SDS011;54076;50.322;18.650;2023-05-10T10:31:50;5.10;;;2.40;;
47483;SDS011;54076;50.322;18.650;2023-05-10T10:37:04;7.90;;;2.70;;
47483;SDS011;54076;50.322;18.650;2023-05-10T10:42:06;5.30;;;2.50;;
47483;SDS011;54076;50.322;18.650;2023-05-10T10:57:47;7.40;;;2.80;;
47483;SDS011;54076;50.322;18.650;2023-05-10T11:02:50;4.90;;;2.20;;
47483;SDS011;54076;50.322;18.650;2023-05-10T11:07:58;5.80;;;2.70;;
47483;SDS011;54076;50.322;18.650;2023-05-10T11:18:29;5.20;;;2.50;;
47483;SDS011;54076;50.322;18.650;2023-05-10T11:23:32;6.60;;;2.10;;
47483;SDS011;54076;50.322;18.650;2023-05-10T11:28:50;5.70;;;2.60;;
47483;SDS011;54076;50.322;18.650;2023-05-10T11:33:53;5.80;;;2.30;;
47483;SDS011;54076;50.322;18.650;2023-05-10T11:38:57;6.50;;;2.30;;
47483;SDS011;54076;50.322;18.650;2023-05-10T11:43:58;7.90;;;2.70;;
47483;SDS011;54076;50.322;18.650;2023-05-10T11:49:00;4.90;;;2.40;;
47483;SDS011;54076;50.322;18.650;2023-05-10T11:54:08;5.90;;;2.80;;
47483;SDS011;54076;50.322;18.650;2023-05-10T11:59:10;4.80;;;2.30;;
47483;SDS011;54076;50.322;18.650;2023-05-10T12:04:14;7.20;;;2.70;;
47483;SDS011;54076;50.322;18.650;2023-05-10T12:09:16;5.40;;;2.60;;
47483;SDS011;54076;50.322;18.650;2023-05-10T12:14:17;6.10;;;2.50;;
47483;SDS011;54076;50.322;18.650;2023-05-10T12:19:20;5.70;;;2.40;;
47483;SDS011;54076;50.322;18.650;2023-05-10T12:24:21;6.50;;;2.40;;
47483;SDS011;54076;50.322;18.650;2023-05-10T12:29:22;7.00;;;2.60;;
47483;SDS011;54076;50.322;18.650;2023-05-10T12:34:29;7.00;;;3.00;;
47483;SDS011;54076;50.322;18.650;2023-05-10T12:39:39;6.60;;;3.30;;
47483;SDS011;54076;50.322;18.650;2023-05-10T12:44:41;6.00;;;2.40;;
47483;SDS011;54076;50.322;18.650;2023-05-10T12:49:42;6.70;;;2.50;;
47483;SDS011;54076;50.322;18.650;2023-05-10T12:54:43;4.80;;;2.40;;
47483;SDS011;54076;50.322;18.650;2023-05-10T12:59:44;7.30;;;3.00;;
47483;SDS011;54076;50.322;18.650;2023-05-10T13:04:45;4.60;;;2.20;;
47483;SDS011;54076;50.322;18.650;2023-05-10T13:09:47;7.20;;;2.50;;
47483;SDS011;54076;50.322;18.650;2023-05-10T13:14:48;5.80;;;2.40;;
47483;SDS011;54076;50.322;18.650;2023-05-10T13:19:49;5.00;;;2.60;;
47483;SDS011;54076;50.322;18.650;2023-05-10T13:24:49;8.20;;;2.50;;
47483;SDS011;54076;50.322;18.650;2023-05-10T13:29:51;5.90;;;2.30;;
47483;SDS011;54076;50.322;18.650;2023-05-10T13:34:52;5.40;;;2.50;;
47483;SDS011;54076;50.322;18.650;2023-05-10T13:39:53;4.30;;;2.20;;
47483;SDS011;54076;50.322;18.650;2023-05-10T13:44:54;5.00;;;2.50;;
47483;SDS011;54076;50.322;18.650;2023-05-10T13:49:55;4.50;;;2.20;;
47483;SDS011;54076;50.322;18.650;2023-05-10T13:54:56;7.10;;;2.30;;
47483;SDS011;54076;50.322;18.650;2023-05-10T13:59:57;4.50;;;2.30;;
47483;SDS011;54076;50.322;18.650;2023-05-10T14:04:58;6.00;;;2.70;;
47483;SDS011;54076;50.322;18.650;2023-05-10T14:10:00;5.20;;;2.40;;
47483;SDS011;54076;50.322;18.650;2023-05-10T14:15:01;6.90;;;2.70;;
47483;SDS011;54076;50.322;18.650;2023-05-10T14:20:03;5.10;;;2.60;;
47483;SDS011;54076;50.322;18.650;2023-05-10T14:25:04;4.20;;;2.40;;
47483;SDS011;54076;50.322;18.650;2023-05-10T14:30:06;4.90;;;2.50;;
47483;SDS011;54076;50.322;18.650;2023-05-10T14:35:07;6.90;;;2.70;;
47483;SDS011;54076;50.322;18.650;2023-05-10T14:40:09;4.60;;;2.40;;
47483;SDS011;54076;50.322;18.650;2023-05-10T14:45:11;4.70;;;2.40;;
47483;SDS011;54076;50.322;18.650;2023-05-10T14:50:12;7.70;;;2.30;;
47483;SDS011;54076;50.322;18.650;2023-05-10T14:55:14;5.60;;;2.20;;
47483;SDS011;54076;50.322;18.650;2023-05-10T15:00:16;5.10;;;2.40;;
47483;SDS011;54076;50.322;18.650;2023-05-10T15:05:17;5.50;;;2.60;;
47483;SDS011;54076;50.322;18.650;2023-05-10T15:10:18;5.20;;;2.50;;
47483;SDS011;54076;50.322;18.650;2023-05-10T15:15:19;5.30;;;2.40;;
47483;SDS011;54076;50.322;18.650;2023-05-10T15:20:20;6.20;;;2.00;;
47483;SDS011;54076;50.322;18.650;2023-05-10T15:25:22;5.60;;;2.50;;
47483;SDS011;54076;50.322;18.650;2023-05-10T15:30:24;5.10;;;2.50;;
47483;SDS011;54076;50.322;18.650;2023-05-10T15:35:26;5.30;;;2.70;;
47483;SDS011;54076;50.322;18.650;2023-05-10T15:40:30;5.00;;;2.20;;
47483;SDS011;54076;50.322;18.650;2023-05-10T15:45:31;7.10;;;2.10;;
47483;SDS011;54076;50.322;18.650;2023-05-10T15:50:32;4.90;;;2.40;;
47483;SDS011;54076;50.322;18.650;2023-05-10T15:55:33;7.90;;;3.30;;
47483;SDS011;54076;50.322;18.650;2023-05-10T16:00:34;6.10;;;2.50;;
47483;SDS011;54076;50.322;18.650;2023-05-10T16:05:36;6.50;;;2.60;;
47483;SDS011;54076;50.322;18.650;2023-05-10T16:10:36;5.40;;;2.30;;
47483;SDS011;54076;50.322;18.650;2023-05-10T16:15:37;7.70;;;2.70;;
47483;SDS011;54076;50.322;18.650;2023-05-10T16:20:39;8.10;;;2.80;;
47483;SDS011;54076;50.322;18.650;2023-05-10T16:25:40;7.00;;;2.70;;
47483;SDS011;54076;50.322;18.650;2023-05-10T16:30:41;7.90;;;2.60;;
47483;SDS011;54076;50.322;18.650;2023-05-10T16:35:42;6.20;;;2.70;;
47483;SDS011;54076;50.322;18.650;2023-05-10T16:40:43;5.10;;;2.40;;
47483;SDS011;54076;50.322;18.650;2023-05-10T16:45:44;5.20;;;2.30;;
47483;SDS011;54076;50.322;18.650;2023-05-10T16:50:45;6.30;;;2.50;;
47483;SDS011;54076;50.322;18.650;2023-05-10T16:55:47;5.90;;;2.30;;
47483;SDS011;54076;50.322;18.650;2023-05-10T17:00:48;6.90;;;2.70;;
47483;SDS011;54076;50.322;18.650;2023-05-10T17:05:49;5.90;;;2.70;;
47483;SDS011;54076;50.322;18.650;2023-05-10T17:10:50;5.10;;;2.40;;
47483;SDS011;54076;50.322;18.650;2023-05-10T17:15:51;7.30;;;3.60;;
47483;SDS011;54076;50.322;18.650;2023-05-10T17:20:52;4.80;;;2.60;;
47483;SDS011;54076;50.322;18.650;2023-05-10T17:25:53;7.10;;;2.30;;
47483;SDS011;54076;50.322;18.650;2023-05-10T17:30:55;9.00;;;2.50;;
47483;SDS011;54076;50.322;18.650;2023-05-10T17:35:57;6.10;;;2.40;;
47483;SDS011;54076;50.322;18.650;2023-05-10T17:40:58;7.20;;;2.40;;
47483;SDS011;54076;50.322;18.650;2023-05-10T17:45:59;4.50;;;2.30;;
47483;SDS011;54076;50.322;18.650;2023-05-10T17:51:00;6.80;;;2.10;;
47483;SDS011;54076;50.322;18.650;2023-05-10T17:56:01;8.60;;;3.40;;
47483;SDS011;54076;50.322;18.650;2023-05-10T18:01:03;7.90;;;2.80;;
47483;SDS011;54076;50.322;18.650;2023-05-10T18:06:04;7.00;;;2.80;;
47483;SDS011;54076;50.322;18.650;2023-05-10T18:11:05;8.20;;;3.30;;
47483;SDS011;54076;50.322;18.650;2023-05-10T18:16:06;8.50;;;3.50;;
47483;SDS011;54076;50.322;18.650;2023-05-10T18:21:08;7.60;;;3.80;;
47483;SDS011;54076;50.322;18.650;2023-05-10T18:26:09;7.50;;;3.40;;
47483;SDS011;54076;50.322;18.650;2023-05-10T18:31:10;8.20;;;3.80;;
47483;SDS011;54076;50.322;18.650;2023-05-10T18:36:12;12.30;;;3.60;;
47483;SDS011;54076;50.322;18.650;2023-05-10T18:41:13;10.10;;;3.40;;
47483;SDS011;54076;50.322;18.650;2023-05-10T18:46:15;11.30;;;3.50;;
47483;SDS011;54076;50.322;18.650;2023-05-10T18:51:16;9.00;;;3.90;;
47483;SDS011;54076;50.322;18.650;2023-05-10T18:56:17;9.50;;;3.50;;
47483;SDS011;54076;50.322;18.650;2023-05-10T19:01:18;9.70;;;4.30;;
47483;SDS011;54076;50.322;18.650;2023-05-10T19:06:19;15.70;;;5.70;;
47483;SDS011;54076;50.322;18.650;2023-05-10T19:11:20;9.10;;;4.60;;
47483;SDS011;54076;50.322;18.650;2023-05-10T19:16:21;11.60;;;4.30;;
47483;SDS011;54076;50.322;18.650;2023-05-10T19:21:22;11.10;;;4.90;;
47483;SDS011;54076;50.322;18.650;2023-05-10T19:26:23;13.30;;;4.20;;
47483;SDS011;54076;50.322;18.650;2023-05-10T19:31:24;10.70;;;3.90;;
47483;SDS011;54076;50.322;18.650;2023-05-10T19:36:25;10.10;;;4.60;;
47483;SDS011;54076;50.322;18.650;2023-05-10T19:41:26;13.60;;;5.40;;
47483;SDS011;54076;50.322;18.650;2023-05-10T19:46:28;9.40;;;4.30;;
47483;SDS011;54076;50.322;18.650;2023-05-10T19:51:29;10.20;;;4.50;;
47483;SDS011;54076;50.322;18.650;2023-05-10T19:56:30;11.90;;;4.70;;
47483;SDS011;54076;50.322;18.650;2023-05-10T20:01:31;10.30;;;4.80;;
47483;SDS011;54076;50.322;18.650;2023-05-10T20:06:32;11.10;;;4.10;;
47483;SDS011;54076;50.322;18.650;2023-05-10T20:11:33;11.30;;;4.00;;
47483;SDS011;54076;50.322;18.650;2023-05-10T20:16:34;9.20;;;4.20;;
47483;SDS011;54076;50.322;18.650;2023-05-10T20:21:35;8.80;;;4.00;;
47483;SDS011;54076;50.322;18.650;2023-05-10T20:26:36;8.60;;;3.60;;
47483;SDS011;54076;50.322;18.650;2023-05-10T20:31:37;9.70;;;4.20;;
47483;SDS011;54076;50.322;18.650;2023-05-10T20:36:38;8.80;;;4.10;;
47483;SDS011;54076;50.322;18.650;2023-05-10T20:41:39;9.90;;;4.30;;
47483;SDS011;54076;50.322;18.650;2023-05-10T20:46:40;8.40;;;3.90;;
47483;SDS011;54076;50.322;18.650;2023-05-10T20:51:41;9.50;;;4.70;;
47483;SDS011;54076;50.322;18.650;2023-05-10T20:56:42;9.30;;;4.50;;
47483;SDS011;54076;50.322;18.650;2023-05-10T21:01:44;11.50;;;4.30;;
47483;SDS011;54076;50.322;18.650;2023-05-10T21:06:45;9.00;;;3.90;;
47483;SDS011;54076;50.322;18.650;2023-05-10T21:11:47;10.00;;;4.00;;
47483;SDS011;54076;50.322;18.650;2023-05-10T21:16:49;11.80;;;4.60;;
47483;SDS011;54076;50.322;18.650;2023-05-10T21:21:51;12.10;;;4.10;;
47483;SDS011;54076;50.322;18.650;2023-05-10T21:26:52;10.00;;;4.00;;
47483;SDS011;54076;50.322;18.650;2023-05-10T21:31:53;10.20;;;4.30;;
47483;SDS011;54076;50.322;18.650;2023-05-10T21:36:54;9.40;;;4.10;;
47483;SDS011;54076;50.322;18.650;2023-05-10T21:41:55;8.50;;;4.10;;
47483;SDS011;54076;50.322;18.650;2023-05-10T21:46:55;8.90;;;4.20;;
47483;SDS011;54076;50.322;18.650;2023-05-10T21:51:56;10.00;;;4.30;;
47483;SDS011;54076;50.322;18.650;2023-05-10T21:56:57;7.80;;;3.60;;
47483;SDS011;54076;50.322;18.650;2023-05-10T22:01:58;8.90;;;4.40;;
47483;SDS011;54076;50.322;18.650;2023-05-10T22:06:59;9.80;;;4.20;;
47483;SDS011;54076;50.322;18.650;2023-05-10T22:12:00;9.80;;;4.30;;
47483;SDS011;54076;50.322;18.650;2023-05-10T22:17:01;10.00;;;4.00;;
47483;SDS011;54076;50.322;18.650;2023-05-10T22:22:02;10.60;;;4.20;;
47483;SDS011;54076;50.322;18.650;2023-05-10T22:27:04;10.80;;;3.90;;
47483;SDS011;54076;50.322;18.650;2023-05-10T22:32:05;10.00;;;4.30;;
47483;SDS011;54076;50.322;18.650;2023-05-10T22:37:06;9.60;;;4.40;;
47483;SDS011;54076;50.322;18.650;2023-05-10T22:42:07;7.60;;;4.10;;
47483;SDS011;54076;50.322;18.650;2023-05-10T22:47:08;8.80;;;4.40;;
47483;SDS011;54076;50.322;18.650;2023-05-10T22:52:09;13.70;;;4.60;;
47483;SDS011;54076;50.322;18.650;2023-05-10T22:57:10;12.70;;;5.50;;
47483;SDS011;54076;50.322;18.650;2023-05-10T23:02:11;11.10;;;5.20;;
47483;SDS011;54076;50.322;18.650;2023-05-10T23:07:13;10.50;;;5.00;;
47483;SDS011;54076;50.322;18.650;2023-05-10T23:12:15;12.40;;;4.60;;
47483;SDS011;54076;50.322;18.650;2023-05-10T23:17:16;10.30;;;4.70;;
47483;SDS011;54076;50.322;18.650;2023-05-10T23:22:17;9.60;;;4.70;;
47483;SDS011;54076;50.322;18.650;2023-05-10T23:27:18;9.00;;;4.60;;
47483;SDS011;54076;50.322;18.650;2023-05-10T23:32:19;10.90;;;4.40;;
47483;SDS011;54076;50.322;18.650;2023-05-10T23:37:20;11.30;;;4.30;;
47483;SDS011;54076;50.322;18.650;2023-05-10T23:42:21;9.70;;;4.70;;
47483;SDS011;54076;50.322;18.650;2023-05-10T23:47:22;10.40;;;4.40;;
47483;SDS011;54076;50.322;18.650;2023-05-10T23:52:23;13.70;;;4.30;;
47483;SDS011;54076;50.322;18.650;2023-05-10T23:57:27;13.00;;;4.70;;
